Mackinac Island, MI

9:31 AM EDT on August 29, 2016 (GMT -0400)
Mackinac Island

Weather History for KMCD - March, 2013

Change the Weather History Date:

Friday, March 15, 2013

  Actual Average Record
Temperature  
Mean Temperature 25 °F -  
Max Temperature 31 °F 30 °F 59 °F (2012)
Min Temperature 19 °F 17 °F 3 °F (1979)
Degree Days  
Heating Degree Days 40    
Moisture  
Dew Point 17 °F    
Average Humidity 67    
Maximum Humidity 95    
Minimum Humidity 39    
Precipitation  
Precipitation 0.00 in - - ()
Sea Level Pressure  
Sea Level Pressure 29.87 in    
Wind  
Wind Speed 12 mph (NW)    
Max Wind Speed 22 mph    
Max Gust Speed 28 mph    
Visibility 9 miles    
Events Snow    
Averages and records for this station are not official NWS values.
T = Trace of Precipitation, MM = Missing Value Source: NWS Daily Summary

Daily Weather History Graph

Daily Weather History Graph

Search for Another Location

Airport or City:

Trip Planner

Search our weather history database for the weather conditions in past years. The results will help you decide how hot, cold, wet, or windy it might be!

Date:

Astronomy

Mar. 15, 2013 Rise Set
Actual Time 7:50 AM EDT 7:44 PM EDT
Civil Twilight 7:21 AM EDT 8:14 PM EDT
Nautical Twilight 6:46 AM EDT 8:49 PM EDT
Astronomical Twilight 6:11 AM EDT 9:24 PM EDT
Moon 9:26 AM EDT (3/15) No Moon Set
Length of Visible Light 12h 53m
Length of Day
11h 54m
Waxing Crescent, 15% of the Moon is Illuminated
Mar 15
Waxing Crescent
Mar 19
First Quarter
Mar 27
Full
Apr 3
Last Quarter
Apr 10
New

Hourly Weather History & Observations

Time (EDT) Temp. Windchill Dew Point Humidity Pressure Visibility Wind Dir Wind Speed Gust Speed Precip Events Conditions
12:16 AM 30.0 °F 20.5 °F 23.4 °F 76% 29.92 in 3.0 mi SW 11.5 mph 17.3 mph N/A Snow Light Snow
12:36 AM 29.3 °F 19.1 °F 25.7 °F 86% 29.90 in 2.5 mi SW 12.7 mph 19.6 mph N/A Snow Light Snow
12:56 AM 29.3 °F 19.1 °F 26.8 °F 90% 29.88 in 2.5 mi SW 12.7 mph 20.7 mph N/A Snow Light Snow
1:16 AM 29.8 °F 18.9 °F 27.5 °F 91% 29.87 in 1.8 mi WSW 15.0 mph 23.0 mph N/A Snow Light Snow
1:36 AM 29.7 °F 18.2 °F 28.0 °F 94% 29.86 in 1.5 mi WSW 16.1 mph 20.7 mph N/A Snow Light Snow
1:56 AM 29.8 °F 19.3 °F 28.4 °F 94% 29.85 in 1.8 mi WSW 13.8 mph 21.9 mph N/A Snow Light Snow
2:16 AM 29.8 °F 20.3 °F 28.4 °F 94% 29.85 in 1.8 mi WSW 11.5 mph 26.5 mph N/A Snow Light Snow
2:36 AM 30.0 °F 19.5 °F 28.8 °F 95% 29.84 in 1.5 mi WSW 13.8 mph 23.0 mph N/A Snow Light Snow
2:56 AM 30.2 °F 20.2 °F 28.9 °F 95% 29.83 in 3.0 mi WSW 12.7 mph 21.9 mph N/A   Overcast
3:16 AM 30.6 °F 19.8 °F 28.9 °F 94% 29.82 in 5.0 mi WSW 15.0 mph 21.9 mph N/A   Overcast
3:36 AM 30.9 °F 20.7 °F 28.4 °F 90% 29.81 in 7.0 mi WSW 13.8 mph 21.9 mph N/A   Overcast
3:56 AM 31.1 °F 20.9 °F 28.0 °F 88% 29.80 in 10.0 mi West 13.8 mph 21.9 mph N/A   Overcast
4:16 AM 31.5 °F 20.1 °F 27.5 °F 85% 29.80 in 10.0 mi West 17.3 mph 27.6 mph N/A   Overcast
4:36 AM 31.5 °F 18.8 °F 27.3 °F 85% 29.80 in 10.0 mi West 21.9 mph 26.5 mph N/A   Overcast
4:56 AM 31.5 °F 19.4 °F 27.3 °F 85% 29.79 in 10.0 mi West 19.6 mph 24.2 mph N/A   Overcast
5:16 AM 31.3 °F 20.7 °F 27.5 °F 86% 29.79 in 10.0 mi West 15.0 mph 26.5 mph N/A   Overcast
5:36 AM 31.1 °F 20.5 °F 27.5 °F 87% 29.80 in 10.0 mi WNW 15.0 mph 27.6 mph N/A   Overcast
5:56 AM 30.6 °F 21.2 °F 27.3 °F 88% 29.80 in 10.0 mi WNW 11.5 mph 19.6 mph N/A   Overcast
6:16 AM 30.2 °F 21.3 °F 27.1 °F 88% 29.80 in 10.0 mi West 10.4 mph - N/A   Overcast
6:36 AM 30.0 °F 20.0 °F 26.4 °F 86% 29.80 in 10.0 mi WNW 12.7 mph 18.4 mph N/A   Overcast
6:56 AM 29.8 °F 20.3 °F 25.7 °F 85% 29.81 in 10.0 mi NW 11.5 mph 20.7 mph N/A   Overcast
7:16 AM 29.1 °F 19.4 °F 22.8 °F 77% 29.82 in 10.0 mi NW 11.5 mph 17.3 mph N/A   Overcast
7:35 AM 28.0 °F 15.7 °F 20.3 °F 73% 29.83 in 10.0 mi NW 17.3 mph 25.3 mph N/A   Overcast
7:56 AM 27.3 °F 14.8 °F 19.8 °F 73% 29.84 in 10.0 mi NW 17.3 mph 23.0 mph N/A   Overcast
8:16 AM 27.1 °F 18.9 °F 19.2 °F 72% 29.85 in 10.0 mi NW 8.1 mph 18.4 mph N/A   Overcast
8:35 AM 27.0 °F 18.0 °F 18.5 °F 70% 29.85 in 10.0 mi NW 9.2 mph 19.6 mph N/A   Overcast
8:56 AM 26.6 °F 18.2 °F 18.5 °F 71% 29.86 in 10.0 mi NW 8.1 mph 18.4 mph N/A   Overcast
9:16 AM 26.8 °F 17.7 °F 18.5 °F 71% 29.86 in 10.0 mi WNW 9.2 mph - N/A   Overcast
9:35 AM 27.0 °F 16.7 °F 19.0 °F 72% 29.87 in 10.0 mi NW 11.5 mph - N/A   Overcast
9:56 AM 27.1 °F 18.2 °F 18.5 °F 70% 29.87 in 10.0 mi NW 9.2 mph 17.3 mph N/A   Overcast
10:16 AM 27.5 °F 18.0 °F 18.7 °F 69% 29.87 in 10.0 mi NW 10.4 mph 17.3 mph N/A Snow Light Snow
10:35 AM 27.9 °F 17.3 °F 19.2 °F 70% 29.87 in 10.0 mi NW 12.7 mph 19.6 mph N/A Snow Light Snow
10:56 AM 27.9 °F 17.3 °F 18.3 °F 67% 29.87 in 10.0 mi NW 12.7 mph 20.7 mph N/A   Overcast
11:16 AM 28.4 °F 17.5 °F 17.2 °F 63% 29.87 in 10.0 mi NW 13.8 mph 23.0 mph N/A   Overcast
11:35 AM 28.8 °F 19.0 °F 17.6 °F 63% 29.87 in 10.0 mi NW 11.5 mph 21.9 mph N/A   Overcast
11:56 AM 30.2 °F 20.2 °F 17.1 °F 58% 29.87 in 10.0 mi NW 12.7 mph 19.6 mph N/A   Scattered Clouds
12:16 PM 29.1 °F 18.9 °F 16.2 °F 58% 29.86 in 10.0 mi NW 12.7 mph 21.9 mph N/A   Mostly Cloudy
12:35 PM 28.9 °F 22.8 °F 18.1 °F 64% 29.87 in 10.0 mi North 5.8 mph 17.3 mph N/A   Overcast
12:56 PM 28.6 °F 20.7 °F 19.8 °F 70% 29.87 in 10.0 mi North 8.1 mph - N/A   Overcast
1:16 PM 27.7 °F 18.8 °F 19.8 °F 72% 29.87 in 7.0 mi North 9.2 mph 18.4 mph N/A Snow Light Snow
1:36 PM 30.2 °F 21.9 °F 19.0 °F 63% 29.87 in 10.0 mi NNW 9.2 mph - N/A   Overcast
1:56 PM 30.7 °F 22.0 °F 18.5 °F 60% 29.87 in 10.0 mi NW 10.4 mph 17.3 mph N/A   Overcast
2:15 PM 30.0 °F 21.1 °F 13.3 °F 50% 29.87 in 10.0 mi NW 10.4 mph 18.4 mph N/A   Mostly Cloudy
2:36 PM 30.4 °F 23.6 °F 13.5 °F 50% 29.87 in 10.0 mi NW 6.9 mph 17.3 mph N/A   Mostly Cloudy
2:56 PM 31.3 °F 21.1 °F 12.4 °F 46% 29.87 in 10.0 mi NW 13.8 mph 19.6 mph N/A   Scattered Clouds
3:16 PM 30.2 °F 19.8 °F 10.9 °F 45% 29.88 in 10.0 mi NW 13.8 mph 19.6 mph N/A   Scattered Clouds
3:36 PM 30.0 °F 19.5 °F 10.8 °F 45% 29.88 in 10.0 mi NW 13.8 mph 19.6 mph N/A   Clear
3:56 PM 29.7 °F 20.7 °F 11.7 °F 47% 29.88 in 10.0 mi NW 10.4 mph 16.1 mph N/A   Scattered Clouds
4:16 PM 29.3 °F 19.6 °F 10.2 °F 45% 29.88 in 10.0 mi WNW 11.5 mph 18.4 mph N/A   Scattered Clouds
4:36 PM 29.3 °F 20.2 °F 11.3 °F 47% 29.88 in 10.0 mi NW 10.4 mph 20.7 mph N/A   Mostly Cloudy
4:56 PM 30.2 °F 21.3 °F 10.8 °F 44% 29.89 in 10.0 mi NNW 10.4 mph 19.6 mph N/A   Scattered Clouds
5:16 PM 28.8 °F 19.0 °F 8.1 °F 42% 29.89 in 10.0 mi NW 11.5 mph 18.4 mph N/A   Clear
5:36 PM 27.5 °F 16.8 °F 8.2 °F 44% 29.89 in 10.0 mi NW 12.7 mph 17.3 mph N/A   Clear
5:56 PM 26.6 °F 16.2 °F 5.0 °F 40% 29.90 in 10.0 mi NW 11.5 mph 17.3 mph N/A   Clear
6:16 PM 26.2 °F 17.1 °F 4.5 °F 39% 29.90 in 10.0 mi NW 9.2 mph 18.4 mph N/A   Clear
6:36 PM 25.5 °F 15.5 °F 5.2 °F 42% 29.90 in 10.0 mi NW 10.4 mph 16.1 mph N/A   Clear
6:56 PM 25.3 °F 16.0 °F 6.3 °F 44% 29.90 in 10.0 mi NW 9.2 mph 16.1 mph N/A   Clear
7:16 PM 24.3 °F 13.9 °F 7.0 °F 48% 29.91 in 10.0 mi NW 10.4 mph 16.1 mph N/A   Clear
7:36 PM 23.5 °F 14.5 °F 6.4 °F 48% 29.91 in 10.0 mi NW 8.1 mph - N/A   Scattered Clouds
7:55 PM 22.8 °F 13.6 °F 7.0 °F 51% 29.93 in 10.0 mi NW 8.1 mph - N/A   Scattered Clouds
8:16 PM 22.1 °F 12.0 °F 7.2 °F 53% 29.93 in 10.0 mi NW 9.2 mph - N/A   Scattered Clouds
8:36 PM 21.7 °F 12.3 °F 5.4 °F 49% 29.94 in 10.0 mi NW 8.1 mph 16.1 mph N/A   Scattered Clouds
8:55 PM 21.2 °F 10.9 °F 4.8 °F 49% 29.94 in 10.0 mi NNW 9.2 mph - N/A   Scattered Clouds
9:16 PM 20.8 °F 11.2 °F 5.9 °F 53% 29.94 in 10.0 mi NNW 8.1 mph 16.1 mph N/A   Clear
9:35 PM 20.8 °F 10.4 °F 6.6 °F 54% 29.94 in 10.0 mi NW 9.2 mph - N/A   Clear
9:56 PM 20.3 °F 9.0 °F 7.0 °F 56% 29.95 in 10.0 mi NNW 10.4 mph - N/A   Scattered Clouds
10:16 PM 20.3 °F 12.5 °F 7.9 °F 59% 29.94 in 10.0 mi NNW 5.8 mph - N/A   Scattered Clouds
10:36 PM 20.1 °F 13.6 °F 8.4 °F 61% 29.94 in 10.0 mi North 4.6 mph - N/A   Scattered Clouds
10:56 PM 20.1 °F 12.3 °F 9.5 °F 63% 29.94 in 10.0 mi North 5.8 mph - N/A   Overcast
11:15 PM 19.8 °F 10.8 °F 9.5 °F 64% 29.94 in 10.0 mi NNW 6.9 mph - N/A   Mostly Cloudy
11:36 PM 19.9 °F 11.1 °F 9.1 °F 63% 29.94 in 10.0 mi North 6.9 mph - N/A   Overcast
11:56 PM 20.1 °F 12.3 °F 9.0 °F 62% 29.93 in 10.0 mi North 5.8 mph - N/A   Overcast